Time;durP1;ratioP1;P1;durP2;ratioP2;P2;SDS_P1;SDS_P2;PMS_P1;PMS_P2;Temp;Humidity;BMP_temperature;BMP_pressure;BME280_temperature;BME280_humidity;BME280_pressure;Samples;Min_cycle;Max_cycle;Signal;HPM_P1;HPM_P2
2022/06/17 00:01:38;;;;;;;3.20;2.90;;;17.10;95.90;;;;;;4971395;28;20867;-73
2022/06/17 00:04:04;;;;;;;3.33;2.63;;;17.10;96.30;;;;;;4971865;28;20459;-74
2022/06/17 00:06:40;;;;;;;2.97;2.63;;;17.00;96.10;;;;;;4971894;28;20490;-72
2022/06/17 00:09:09;;;;;;;2.67;2.40;;;17.00;96.20;;;;;;4970900;28;20458;-73
2022/06/17 00:11:37;;;;;;;4.53;2.80;;;16.90;96.60;;;;;;4970837;28;20497;-72
2022/06/17 00:14:06;;;;;;;5.20;2.50;;;16.90;96.40;;;;;;4972690;28;20466;-73
2022/06/17 00:16:34;;;;;;;2.80;2.20;;;16.80;96.70;;;;;;4973254;28;20486;-73
2022/06/17 00:19:00;;;;;;;2.70;2.40;;;16.80;96.80;;;;;;4972543;28;20476;-74
2022/06/17 00:21:29;;;;;;;3.23;2.77;;;16.80;96.70;;;;;;4973850;28;20871;-73
2022/06/17 00:23:56;;;;;;;4.40;3.63;;;16.70;96.70;;;;;;4973989;28;20470;-73
2022/06/17 00:26:24;;;;;;;3.00;2.40;;;16.70;97.10;;;;;;4974346;28;20490;-72
2022/06/17 00:28:51;;;;;;;2.33;2.13;;;16.70;97.10;;;;;;4973724;28;20455;-73
2022/06/17 00:31:18;;;;;;;3.10;2.70;;;16.60;96.80;;;;;;4973672;28;20499;-73
2022/06/17 00:33:45;;;;;;;2.33;2.10;;;16.60;96.40;;;;;;4973963;28;20465;-72
2022/06/17 00:36:15;;;;;;;2.93;2.60;;;16.50;96.40;;;;;;4973993;28;20466;-73
2022/06/17 00:38:42;;;;;;;2.40;2.20;;;16.50;96.80;;;;;;4973988;28;20462;-72
2022/06/17 00:41:15;;;;;;;4.47;2.90;;;16.40;96.80;;;;;;4973201;28;20846;-73
2022/06/17 00:43:44;;;;;;;2.80;2.57;;;16.40;97.40;;;;;;4973767;28;20471;-72
2022/06/17 00:46:22;;;;;;;3.67;2.40;;;16.30;97.60;;;;;;4973966;28;20470;-73
2022/06/17 00:49:00;;;;;;;3.00;2.27;;;16.30;97.90;;;;;;4973721;28;20467;-73
2022/06/17 00:51:31;;;;;;;6.57;2.40;;;16.20;97.90;;;;;;4973401;28;20494;-73
2022/06/17 00:54:03;;;;;;;2.50;2.30;;;16.10;98.00;;;;;;4973798;28;20482;-73
2022/06/17 00:56:32;;;;;;;2.93;2.43;;;16.10;98.10;;;;;;4973793;28;20487;-73
2022/06/17 00:59:05;;;;;;;3.33;3.00;;;16.10;98.20;;;;;;4973560;28;20467;-74
2022/06/17 01:01:39;;;;;;;2.20;2.00;;;16.00;98.30;;;;;;4973029;28;20469;-73
2022/06/17 01:04:09;;;;;;;2.80;2.60;;;16.00;98.40;;;;;;4974106;28;20485;-73
2022/06/17 01:06:40;;;;;;;2.73;2.40;;;16.00;98.70;;;;;;4973440;28;20487;-73
2022/06/17 01:11:57;;;;;;;2.80;2.60;;;15.90;98.50;;;;;;4973485;28;20598;-73
2022/06/17 01:14:27;;;;;;;2.63;2.43;;;15.80;98.70;;;;;;4973045;28;20459;-73
2022/06/17 01:16:56;;;;;;;2.80;2.60;;;15.80;98.80;;;;;;4973133;28;20479;-74
2022/06/17 01:19:31;;;;;;;2.70;2.50;;;15.70;98.60;;;;;;4972777;28;20463;-73
2022/06/17 01:22:06;;;;;;;2.60;2.40;;;15.70;98.70;;;;;;4973091;28;20477;-72
2022/06/17 01:24:35;;;;;;;3.50;2.93;;;15.60;98.70;;;;;;4973303;28;20470;-73
2022/06/17 01:27:02;;;;;;;3.30;2.63;;;15.60;98.80;;;;;;4972884;28;20486;-72
2022/06/17 01:29:30;;;;;;;3.70;3.10;;;15.50;99.00;;;;;;4972611;28;20470;-73
2022/06/17 01:31:57;;;;;;;3.00;2.70;;;15.50;99.20;;;;;;4972906;28;20521;-73
2022/06/17 01:34:24;;;;;;;3.20;2.90;;;15.50;99.20;;;;;;4972952;28;20470;-73
2022/06/17 01:36:52;;;;;;;4.17;2.67;;;15.40;99.00;;;;;;4972626;28;20494;-74
2022/06/17 01:39:19;;;;;;;2.73;2.53;;;15.40;99.30;;;;;;4972217;28;21001;-73
2022/06/17 01:41:49;;;;;;;3.80;2.73;;;15.40;99.30;;;;;;4972615;28;20466;-72
2022/06/17 01:44:21;;;;;;;3.43;3.13;;;15.30;99.70;;;;;;4973064;28;20463;-73
2022/06/17 01:46:52;;;;;;;2.83;2.60;;;15.30;99.90;;;;;;4972232;28;20567;-73
2022/06/17 01:49:22;;;;;;;3.93;3.33;;;15.30;99.80;;;;;;4972470;28;20614;-73
2022/06/17 01:51:54;;;;;;;3.30;2.77;;;15.30;99.90;;;;;;4971583;28;20498;-73
2022/06/17 01:54:25;;;;;;;3.47;2.80;;;15.20;99.90;;;;;;4972644;28;20470;-73
2022/06/17 01:56:56;;;;;;;3.23;2.93;;;15.20;99.90;;;;;;4972357;28;20494;-72
2022/06/17 01:59:26;;;;;;;2.93;2.73;;;15.20;99.90;;;;;;4971836;28;20463;-72
2022/06/17 02:01:56;;;;;;;4.40;2.80;;;15.10;99.90;;;;;;4972416;28;21357;-72
2022/06/17 02:04:27;;;;;;;3.50;2.57;;;15.20;99.90;;;;;;4972624;28;20510;-73
2022/06/17 02:06:59;;;;;;;2.90;2.63;;;15.10;99.90;;;;;;4972065;28;20490;-73
2022/06/17 02:09:26;;;;;;;5.57;3.10;;;15.10;99.90;;;;;;4971863;28;20463;-73
2022/06/17 02:11:55;;;;;;;5.13;2.90;;;15.10;99.60;;;;;;4971955;28;20487;-72
2022/06/17 02:14:23;;;;;;;4.60;2.60;;;15.10;99.90;;;;;;4972503;28;20471;-73
2022/06/17 02:16:53;;;;;;;3.10;2.87;;;15.00;99.90;;;;;;4972009;28;20541;-73
2022/06/17 02:19:24;;;;;;;3.27;2.97;;;15.00;99.90;;;;;;4971555;28;20837;-73
2022/06/17 02:21:56;;;;;;;3.17;2.53;;;15.00;99.90;;;;;;4972470;28;20623;-73
2022/06/17 02:24:23;;;;;;;3.27;3.00;;;14.90;99.90;;;;;;4972202;28;20543;-73
2022/06/17 02:26:51;;;;;;;2.73;2.53;;;14.80;99.90;;;;;;4972048;28;20490;-73
2022/06/17 02:31:47;;;;;;;4.40;3.10;;;14.70;99.90;;;;;;4971776;28;20487;-71
2022/06/17 02:34:17;;;;;;;2.67;2.47;;;14.70;99.90;;;;;;4974331;28;20466;-72
2022/06/17 02:36:49;;;;;;;3.30;3.00;;;14.70;99.90;;;;;;4973869;28;20863;-72
2022/06/17 02:39:16;;;;;;;3.10;2.80;;;14.60;99.90;;;;;;4977072;28;20467;-71
2022/06/17 02:41:45;;;;;;;2.90;2.70;;;14.60;99.90;;;;;;4977253;28;20459;-72
2022/06/17 02:44:20;;;;;;;3.23;2.93;;;14.60;99.90;;;;;;4975986;28;20466;-73
2022/06/17 02:46:49;;;;;;;3.80;2.97;;;14.60;99.90;;;;;;4976257;28;20489;-74
2022/06/17 02:49:20;;;;;;;2.80;2.47;;;14.60;99.90;;;;;;4975436;28;20529;-73
2022/06/17 02:51:47;;;;;;;3.20;2.83;;;14.50;99.90;;;;;;4976288;28;20482;-73
2022/06/17 02:54:19;;;;;;;4.00;2.93;;;14.50;99.90;;;;;;4975881;28;20898;-73
2022/06/17 02:56:50;;;;;;;3.00;2.80;;;14.50;99.90;;;;;;4975804;28;20491;-73
2022/06/17 02:59:22;;;;;;;3.53;2.53;;;14.50;99.90;;;;;;4975536;28;20531;-73
2022/06/17 03:01:52;;;;;;;3.00;2.80;;;14.40;99.90;;;;;;4975808;28;20482;-73
2022/06/17 03:04:22;;;;;;;3.17;2.87;;;14.30;99.90;;;;;;4979194;28;20471;-73
2022/06/17 03:06:51;;;;;;;4.67;3.30;;;14.30;99.90;;;;;;4980244;28;20994;-73
2022/06/17 03:09:21;;;;;;;3.43;3.13;;;14.20;99.90;;;;;;4978671;28;20467;-73
2022/06/17 03:11:50;;;;;;;4.37;3.37;;;14.20;99.90;;;;;;4979236;28;20494;-73
2022/06/17 03:14:18;;;;;;;3.20;2.90;;;14.20;99.90;;;;;;4978817;28;20467;-73
2022/06/17 03:16:47;;;;;;;3.07;2.53;;;14.20;99.90;;;;;;4979244;28;20551;-73
2022/06/17 03:19:15;;;;;;;3.20;2.90;;;14.20;99.90;;;;;;4978917;28;20589;-72
2022/06/17 03:21:42;;;;;;;5.20;3.00;;;14.20;99.90;;;;;;4979202;28;20950;-73
2022/06/17 03:24:15;;;;;;;4.50;3.33;;;14.20;99.90;;;;;;4979268;28;20473;-72
2022/06/17 03:26:49;;;;;;;3.33;3.03;;;14.10;99.90;;;;;;4978882;28;20483;-72
2022/06/17 03:29:18;;;;;;;3.20;2.90;;;14.10;99.90;;;;;;4976077;28;20469;-71
2022/06/17 03:31:50;;;;;;;2.97;2.77;;;14.10;99.90;;;;;;4975537;28;20474;-71
2022/06/17 03:34:22;;;;;;;4.17;2.80;;;14.00;99.90;;;;;;4966867;28;20483;-70
2022/06/17 03:36:54;;;;;;;5.17;3.10;;;14.00;99.90;;;;;;4965028;28;21003;-71
2022/06/17 03:39:25;;;;;;;3.07;2.80;;;14.00;99.90;;;;;;4964121;28;20455;-71
2022/06/17 03:41:56;;;;;;;2.70;2.50;;;14.00;99.90;;;;;;4964855;28;20456;-72
2022/06/17 03:44:29;;;;;;;3.70;3.00;;;14.00;99.90;;;;;;4963953;28;20859;-72
2022/06/17 03:46:59;;;;;;;3.20;3.00;;;14.00;99.90;;;;;;4965191;28;20220;-71
2022/06/17 03:49:34;;;;;;;4.27;3.10;;;14.00;99.90;;;;;;4965278;28;20969;-73
2022/06/17 03:52:06;;;;;;;3.40;3.00;;;14.00;99.90;;;;;;4963935;28;20489;-72
2022/06/17 03:54:33;;;;;;;3.13;2.83;;;14.00;99.90;;;;;;4962190;28;20966;-73
2022/06/17 03:57:01;;;;;;;3.60;3.30;;;14.10;99.90;;;;;;4958781;28;20483;-72
2022/06/17 03:59:31;;;;;;;4.40;3.27;;;14.10;99.90;;;;;;4962044;28;20464;-73
2022/06/17 04:02:00;;;;;;;3.73;3.10;;;14.10;99.90;;;;;;4963840;28;20487;-71
2022/06/17 04:04:32;;;;;;;4.23;3.30;;;14.20;99.90;;;;;;4964657;28;20463;-72
2022/06/17 04:06:59;;;;;;;3.40;3.10;;;14.20;99.90;;;;;;4964183;28;20487;-72
2022/06/17 04:09:27;;;;;;;4.47;3.50;;;14.20;99.90;;;;;;4961702;28;20470;-72
2022/06/17 04:11:57;;;;;;;3.53;3.23;;;14.20;99.90;;;;;;4963644;28;20480;-73
2022/06/17 04:14:29;;;;;;;3.30;3.00;;;14.20;99.90;;;;;;4961538;28;20555;-72
2022/06/17 04:17:04;;;;;;;3.43;3.13;;;14.20;99.90;;;;;;4963417;28;20845;-71
2022/06/17 04:19:32;;;;;;;3.70;3.10;;;14.30;99.90;;;;;;4962903;28;20456;-72
2022/06/17 04:22:03;;;;;;;3.10;2.90;;;14.30;99.90;;;;;;4963732;28;20459;-72
2022/06/17 04:24:30;;;;;;;3.87;3.43;;;14.40;99.90;;;;;;4962214;28;20459;-71
2022/06/17 04:27:01;;;;;;;3.40;3.10;;;14.40;99.90;;;;;;4959941;28;20483;-72
2022/06/17 04:29:35;;;;;;;2.90;2.60;;;14.40;99.90;;;;;;4953720;28;20460;-70
2022/06/17 04:32:09;;;;;;;3.27;2.97;;;14.50;99.90;;;;;;4952579;28;20527;-72
2022/06/17 04:34:37;;;;;;;3.20;2.90;;;14.50;99.90;;;;;;4954961;28;20562;-72
2022/06/17 04:37:07;;;;;;;4.80;3.20;;;14.50;99.90;;;;;;4952376;28;20487;-71
2022/06/17 04:39:37;;;;;;;3.47;2.80;;;14.50;99.90;;;;;;4951868;28;20463;-70
2022/06/17 04:42:08;;;;;;;3.20;2.90;;;14.60;99.90;;;;;;4953098;28;20464;-72
2022/06/17 04:44:34;;;;;;;3.40;3.10;;;14.60;99.90;;;;;;4953243;28;20468;-71
2022/06/17 04:47:05;;;;;;;3.80;3.00;;;14.70;99.90;;;;;;4954935;28;20883;-71
2022/06/17 04:49:39;;;;;;;4.10;3.10;;;14.70;99.90;;;;;;4954859;28;21205;-71
2022/06/17 04:52:13;;;;;;;3.13;2.83;;;14.80;99.90;;;;;;4954263;28;20514;-69
2022/06/17 04:54:40;;;;;;;3.83;2.93;;;14.80;99.90;;;;;;4954629;28;20831;-69
2022/06/17 04:57:07;;;;;;;4.03;3.73;;;14.80;99.90;;;;;;4954160;28;20487;-71
2022/06/17 04:59:36;;;;;;;3.47;3.17;;;14.90;99.90;;;;;;4954086;28;20467;-70
2022/06/17 05:02:05;;;;;;;3.10;2.87;;;14.90;99.90;;;;;;4954339;28;20475;-70
2022/06/17 05:04:32;;;;;;;4.90;2.80;;;14.90;99.90;;;;;;4954432;28;20987;-71
2022/06/17 05:07:00;;;;;;;3.53;3.10;;;15.00;99.90;;;;;;4953990;28;20496;-70
2022/06/17 05:09:31;;;;;;;3.23;2.93;;;15.10;99.90;;;;;;4953587;28;20464;-70
2022/06/17 05:12:02;;;;;;;3.80;3.13;;;15.10;99.90;;;;;;4954238;28;20487;-71
2022/06/17 05:14:39;;;;;;;6.07;3.37;;;15.30;99.90;;;;;;4954114;28;20464;-71
2022/06/17 05:17:06;;;;;;;4.87;3.80;;;15.30;99.90;;;;;;4954104;28;20491;-70
2022/06/17 05:19:33;;;;;;;3.80;3.10;;;15.50;99.90;;;;;;4953517;28;20480;-69
2022/06/17 05:22:02;;;;;;;3.63;3.20;;;15.60;99.90;;;;;;4954126;28;20471;-70
2022/06/17 05:24:29;;;;;;;2.70;2.50;;;15.70;99.90;;;;;;4953806;28;20468;-71
2022/06/17 05:26:57;;;;;;;2.90;2.60;;;15.80;99.90;;;;;;4971501;28;21013;-71
2022/06/17 05:29:24;;;;;;;3.30;3.00;;;15.90;99.90;;;;;;4972688;28;20744;-71
2022/06/17 05:31:52;;;;;;;3.90;2.97;;;16.00;99.90;;;;;;4972823;28;21061;-71
2022/06/17 05:34:19;;;;;;;3.00;2.80;;;16.10;99.90;;;;;;4973312;28;20526;-70
2022/06/17 05:36:46;;;;;;;4.80;3.03;;;16.20;99.90;;;;;;4972736;28;20498;-71
2022/06/17 05:39:14;;;;;;;2.80;2.53;;;16.30;99.90;;;;;;4972683;28;20463;-70
2022/06/17 05:41:40;;;;;;;4.43;2.47;;;16.50;99.90;;;;;;4972837;28;20492;-70
2022/06/17 05:44:07;;;;;;;3.27;2.97;;;16.60;99.90;;;;;;4972806;28;20958;-71
2022/06/17 05:46:34;;;;;;;3.00;2.70;;;16.60;99.90;;;;;;4972711;28;20890;-71
2022/06/17 05:49:00;;;;;;;3.57;3.00;;;16.80;99.90;;;;;;4972772;28;20473;-71
2022/06/17 05:51:27;;;;;;;3.60;2.70;;;16.90;99.90;;;;;;4972264;28;20498;-70
2022/06/17 05:53:54;;;;;;;2.90;2.60;;;16.90;99.90;;;;;;4972618;28;20494;-70
2022/06/17 05:56:22;;;;;;;3.93;2.90;;;17.00;99.90;;;;;;4972959;28;20494;-72
2022/06/17 05:58:49;;;;;;;2.50;2.30;;;17.10;99.90;;;;;;4972535;28;20884;-72
2022/06/17 06:01:15;;;;;;;5.40;2.63;;;17.30;99.90;;;;;;4972587;28;20458;-72
2022/06/17 06:03:42;;;;;;;3.20;2.47;;;17.30;99.90;;;;;;4969736;28;20462;-72
2022/06/17 06:06:09;;;;;;;2.87;2.67;;;17.40;99.90;;;;;;4973417;28;20840;-75
2022/06/17 06:08:35;;;;;;;5.60;3.10;;;17.40;99.90;;;;;;4972023;28;20466;-75
2022/06/17 06:11:04;;;;;;;3.50;2.83;;;17.50;99.90;;;;;;4971530;28;20466;-75
2022/06/17 06:13:32;;;;;;;3.00;2.70;;;17.60;99.90;;;;;;4972305;28;20857;-75
2022/06/17 06:16:01;;;;;;;3.07;2.77;;;17.70;99.90;;;;;;4971831;28;20462;-75
2022/06/17 06:18:30;;;;;;;3.83;3.00;;;17.80;99.90;;;;;;4972321;28;20553;-75
2022/06/17 06:20:57;;;;;;;5.87;2.90;;;17.90;99.90;;;;;;4971908;28;21104;-75
2022/06/17 06:23:24;;;;;;;3.03;2.70;;;18.10;99.50;;;;;;4971381;28;20474;-75
2022/06/17 06:25:50;;;;;;;4.03;2.70;;;18.20;99.50;;;;;;4971879;28;20474;-75
2022/06/17 06:28:19;;;;;;;4.57;2.60;;;18.30;99.60;;;;;;4971895;28;20490;-75
2022/06/17 06:30:53;;;;;;;5.17;2.97;;;18.30;99.80;;;;;;4971417;28;20474;-75
2022/06/17 06:33:20;;;;;;;2.50;2.30;;;18.40;99.90;;;;;;4972014;28;20483;-75
2022/06/17 06:35:47;;;;;;;3.93;2.70;;;18.60;99.80;;;;;;4971863;28;20470;-75
2022/06/17 06:38:14;;;;;;;4.23;2.70;;;18.60;99.00;;;;;;4971027;28;20483;-75
2022/06/17 06:40:41;;;;;;;3.10;2.80;;;18.80;99.30;;;;;;4971446;28;20467;-75
2022/06/17 06:43:13;;;;;;;3.10;2.80;;;18.80;98.70;;;;;;4971718;28;20839;-75
2022/06/17 06:45:39;;;;;;;3.60;3.00;;;18.90;98.70;;;;;;4972090;28;20467;-75
2022/06/17 06:48:10;;;;;;;3.00;2.77;;;18.90;98.50;;;;;;4971364;28;20557;-75
2022/06/17 06:50:38;;;;;;;3.10;2.70;;;19.00;98.20;;;;;;4971435;28;20462;-75
2022/06/17 06:53:05;;;;;;;3.00;2.70;;;19.10;98.70;;;;;;4971480;28;20491;-75
2022/06/17 06:55:34;;;;;;;4.60;2.67;;;19.20;98.10;;;;;;4971878;28;20467;-75
2022/06/17 06:58:02;;;;;;;3.57;2.70;;;19.40;99.10;;;;;;4971537;28;21006;-75
2022/06/17 07:00:33;;;;;;;2.87;2.67;;;19.50;98.10;;;;;;4971515;28;20848;-77
2022/06/17 07:03:00;;;;;;;4.73;3.03;;;19.50;97.60;;;;;;4971685;28;20455;-77
2022/06/17 07:05:29;;;;;;;2.90;2.70;;;19.60;98.10;;;;;;4971843;28;20466;-77
2022/06/17 07:07:56;;;;;;;3.50;2.83;;;19.70;98.90;;;;;;4971447;28;20864;-77
2022/06/17 07:10:28;;;;;;;3.00;2.80;;;19.70;98.80;;;;;;4970944;28;20483;-77
2022/06/17 07:12:55;;;;;;;3.97;2.90;;;19.80;98.60;;;;;;4971846;28;20487;-77
2022/06/17 07:15:23;;;;;;;3.20;2.90;;;19.90;99.10;;;;;;4968365;28;20479;-77
2022/06/17 07:17:58;;;;;;;3.20;2.73;;;20.00;98.10;;;;;;4969038;28;20483;-77
2022/06/17 07:20:27;;;;;;;4.60;3.23;;;20.00;97.80;;;;;;4969341;28;21019;-77
2022/06/17 07:22:55;;;;;;;3.63;2.77;;;20.10;98.30;;;;;;4969055;28;20485;-77
2022/06/17 07:25:23;;;;;;;3.30;3.00;;;20.20;99.20;;;;;;4970025;28;20470;-77
2022/06/17 07:27:50;;;;;;;5.53;3.37;;;20.30;98.60;;;;;;4969020;28;20483;-77
2022/06/17 07:30:18;;;;;;;5.90;3.33;;;20.40;98.30;;;;;;4968871;28;20475;-77
2022/06/17 07:32:46;;;;;;;3.33;3.03;;;20.50;97.40;;;;;;4967335;28;20846;-77
2022/06/17 07:35:14;;;;;;;8.43;2.80;;;20.50;97.10;;;;;;4970377;28;20535;-77
2022/06/17 07:40:28;;;;;;;3.27;2.87;;;20.60;96.80;;;;;;4970500;28;20442;-76
2022/06/17 07:42:55;;;;;;;3.53;2.80;;;20.70;96.70;;;;;;4971126;28;20455;-77
2022/06/17 07:45:23;;;;;;;4.00;2.70;;;20.80;97.60;;;;;;4970966;28;20459;-77
2022/06/17 07:47:51;;;;;;;4.20;2.53;;;20.90;97.90;;;;;;4970360;28;20986;-77
2022/06/17 07:50:22;;;;;;;6.10;3.20;;;21.00;97.90;;;;;;4971847;28;20467;-77
2022/06/17 07:52:48;;;;;;;4.13;3.40;;;21.10;97.10;;;;;;4974313;28;20494;-77
2022/06/17 07:55:16;;;;;;;3.60;3.03;;;21.30;97.20;;;;;;4973887;28;20988;-77
2022/06/17 07:57:45;;;;;;;4.20;3.30;;;21.30;95.00;;;;;;4974009;28;20558;-77
2022/06/17 08:00:18;;;;;;;5.40;3.10;;;21.40;95.50;;;;;;4973559;28;20463;-77
2022/06/17 08:02:45;;;;;;;5.10;3.13;;;21.30;96.30;;;;;;4973790;28;20465;-77
2022/06/17 08:05:12;;;;;;;4.83;3.17;;;21.50;95.90;;;;;;4974341;28;20855;-77
2022/06/17 08:07:39;;;;;;;4.93;3.10;;;21.50;96.30;;;;;;4972043;28;20519;-77
2022/06/17 08:10:06;;;;;;;3.23;2.70;;;21.70;96.50;;;;;;4972808;28;20462;-77
2022/06/17 08:12:33;;;;;;;5.63;3.07;;;21.70;95.50;;;;;;4973721;28;20498;-77
2022/06/17 08:15:01;;;;;;;4.60;3.30;;;21.70;95.80;;;;;;4973199;28;20540;-77
2022/06/17 08:17:29;;;;;;;6.50;2.90;;;21.80;95.90;;;;;;4973731;28;20486;-77
2022/06/17 08:19:57;;;;;;;3.80;3.50;;;21.90;95.80;;;;;;4972853;28;20569;-77
2022/06/17 08:22:25;;;;;;;3.50;2.53;;;22.00;94.30;;;;;;4973415;28;20587;-77
2022/06/17 08:24:52;;;;;;;4.50;2.73;;;22.10;95.60;;;;;;4972750;28;20469;-77
2022/06/17 08:27:19;;;;;;;3.27;2.80;;;22.10;95.30;;;;;;4973798;28;20927;-77
2022/06/17 08:29:46;;;;;;;4.83;3.40;;;22.20;95.30;;;;;;4972982;28;20475;-77
2022/06/17 08:34:58;;;;;;;5.07;2.80;;;22.30;93.80;;;;;;4973128;28;20451;-77
2022/06/17 08:39:55;;;;;;;4.27;2.73;;;22.30;93.80;;;;;;4987481;28;20473;-74
2022/06/17 08:42:35;;;;;;;2.80;2.60;;;22.40;96.00;;;;;;4990672;28;20458;-72
2022/06/17 08:45:12;;;;;;;6.67;2.80;;;22.60;95.20;;;;;;4992610;28;20459;-72
2022/06/17 08:47:52;;;;;;;4.73;2.57;;;22.70;94.20;;;;;;4993211;28;20488;-73
2022/06/17 08:50:43;;;;;;;6.90;3.10;;;22.70;94.90;;;;;;4992779;28;20468;-74
2022/06/17 08:53:37;;;;;;;3.60;3.00;;;23.00;95.20;;;;;;4992865;28;20497;-72
2022/06/17 08:56:10;;;;;;;2.90;2.57;;;23.20;95.70;;;;;;4967128;28;20469;-73
2022/06/17 08:58:45;;;;;;;3.13;2.70;;;23.30;94.50;;;;;;4992911;28;20458;-72
2022/06/17 09:01:22;;;;;;;2.70;2.50;;;23.40;93.60;;;;;;4992154;28;20461;-73
2022/06/17 09:04:14;;;;;;;5.13;2.20;;;23.40;95.30;;;;;;4993124;28;20454;-73
2022/06/17 09:06:53;;;;;;;4.90;2.83;;;23.50;94.60;;;;;;4993011;28;20484;-72
2022/06/17 09:09:50;;;;;;;3.13;2.60;;;23.60;93.50;;;;;;4992094;28;20458;-72
2022/06/17 09:12:25;;;;;;;5.83;2.70;;;23.80;94.80;;;;;;4992735;28;20486;-72
2022/06/17 09:15:02;;;;;;;3.53;2.70;;;24.00;94.30;;;;;;4992953;28;20471;-72
2022/06/17 09:17:37;;;;;;;4.17;2.90;;;24.00;93.60;;;;;;4992585;28;20505;-74
2022/06/17 09:20:09;;;;;;;3.40;3.10;;;24.20;95.20;;;;;;4992018;28;20462;-72
2022/06/17 09:22:41;;;;;;;3.50;3.20;;;24.20;93.00;;;;;;4992670;28;20465;-72
2022/06/17 09:25:12;;;;;;;3.20;2.90;;;24.20;92.00;;;;;;4992792;28;20477;-72
2022/06/17 09:27:41;;;;;;;6.30;3.43;;;24.10;91.60;;;;;;4992281;28;20849;-72
2022/06/17 09:30:15;;;;;;;4.10;3.00;;;24.20;93.60;;;;;;4992172;28;20458;-72
2022/06/17 09:32:46;;;;;;;3.20;2.90;;;24.30;93.40;;;;;;4992639;28;20486;-72
2022/06/17 09:35:21;;;;;;;4.50;2.73;;;24.50;93.10;;;;;;4992804;28;20485;-71
2022/06/17 09:37:55;;;;;;;4.50;3.80;;;24.60;92.60;;;;;;4991920;28;20501;-73
2022/06/17 09:40:26;;;;;;;4.23;3.13;;;24.50;94.20;;;;;;4991778;28;20466;-74
2022/06/17 09:42:57;;;;;;;7.00;3.27;;;24.50;92.10;;;;;;4992178;28;20462;-72
2022/06/17 09:45:31;;;;;;;3.17;2.63;;;24.40;92.70;;;;;;4992498;28;21135;-73
2022/06/17 09:48:05;;;;;;;3.43;2.53;;;24.60;93.90;;;;;;4991922;28;20485;-73
2022/06/17 09:50:39;;;;;;;3.00;2.70;;;24.90;93.60;;;;;;4991691;28;20835;-73
2022/06/17 09:53:12;;;;;;;5.47;2.40;;;25.30;93.80;;;;;;4992072;28;21026;-73
2022/06/17 09:55:43;;;;;;;4.23;2.93;;;25.50;92.90;;;;;;4991939;28;20466;-73
2022/06/17 09:58:18;;;;;;;3.70;2.80;;;25.80;91.60;;;;;;4992044;28;20493;-73
2022/06/17 10:00:48;;;;;;;3.40;2.63;;;25.90;91.80;;;;;;4991392;28;20979;-73
2022/06/17 10:03:22;;;;;;;3.13;2.93;;;26.00;93.10;;;;;;4992061;28;20462;-72
2022/06/17 10:06:04;;;;;;;5.33;2.80;;;26.10;91.10;;;;;;4991408;28;20468;-72
2022/06/17 10:08:44;;;;;;;4.00;3.10;;;26.00;91.50;;;;;;4991588;28;20470;-73
2022/06/17 10:11:17;;;;;;;3.97;3.10;;;25.90;92.70;;;;;;4991096;28;20933;-74
2022/06/17 10:13:50;;;;;;;3.30;3.00;;;26.10;93.60;;;;;;4990973;28;20486;-73
2022/06/17 10:19:21;;;;;;;3.83;3.27;;;26.30;91.60;;;;;;4991704;28;21240;-74
2022/06/17 10:22:01;;;;;;;3.60;3.17;;;26.20;90.50;;;;;;4991201;28;20458;-73
2022/06/17 10:24:37;;;;;;;3.40;3.10;;;26.10;92.90;;;;;;4991805;28;20857;-73
2022/06/17 10:27:18;;;;;;;4.20;3.37;;;26.30;92.80;;;;;;4991485;28;20482;-73
2022/06/17 10:30:03;;;;;;;4.00;3.27;;;26.30;92.50;;;;;;4991063;28;20468;-73
2022/06/17 10:32:33;;;;;;;4.03;3.00;;;26.50;93.40;;;;;;4991095;28;20479;-73
2022/06/17 10:35:02;;;;;;;3.80;3.50;;;26.70;92.90;;;;;;4991669;28;20501;-73
2022/06/17 10:37:33;;;;;;;3.90;3.13;;;26.90;93.60;;;;;;4991369;28;20486;-73
2022/06/17 10:40:01;;;;;;;4.27;2.93;;;27.10;90.70;;;;;;4992211;28;20473;-73
2022/06/17 10:42:29;;;;;;;3.20;2.90;;;26.90;92.20;;;;;;4991180;28;20478;-73
2022/06/17 10:44:59;;;;;;;4.10;3.13;;;26.80;90.60;;;;;;4991341;28;20466;-73
2022/06/17 10:47:34;;;;;;;3.20;2.90;;;26.80;90.10;;;;;;4990681;28;20486;-74
2022/06/17 10:50:06;;;;;;;4.32;2.97;;;27.00;91.40;;;;;;4989746;28;20463;-74
2022/06/17 10:52:39;;;;;;;3.23;2.87;;;27.30;92.10;;;;;;4991405;28;20207;-75
2022/06/17 10:55:13;;;;;;;6.30;3.17;;;27.60;92.60;;;;;;4991651;28;20855;-75
2022/06/17 10:57:41;;;;;;;6.27;3.13;;;27.90;92.10;;;;;;4991371;28;20492;-76
2022/06/17 11:00:23;;;;;;;3.23;2.90;;;28.10;92.10;;;;;;4991597;28;20912;-75
2022/06/17 11:02:50;;;;;;;3.13;2.93;;;28.10;90.40;;;;;;4991397;28;20882;-75
2022/06/17 11:05:31;;;;;;;3.00;2.60;;;28.10;87.40;;;;;;4991040;28;20464;-75
2022/06/17 11:08:00;;;;;;;4.63;3.10;;;28.20;90.70;;;;;;4991682;28;21080;-75
2022/06/17 11:10:29;;;;;;;3.10;2.60;;;28.30;91.50;;;;;;4990940;28;20546;-75
2022/06/17 11:12:59;;;;;;;2.87;2.60;;;28.30;90.20;;;;;;4991296;28;20485;-75
2022/06/17 11:15:29;;;;;;;2.83;2.37;;;28.40;90.20;;;;;;4991670;28;20882;-75
2022/06/17 11:18:00;;;;;;;2.40;2.20;;;28.40;89.70;;;;;;4991172;28;20487;-75
2022/06/17 11:20:30;;;;;;;4.33;2.90;;;28.60;88.30;;;;;;4991075;28;20463;-75
2022/06/17 11:23:00;;;;;;;3.17;2.87;;;28.70;84.60;;;;;;4991681;28;20455;-74
2022/06/17 11:25:34;;;;;;;3.73;3.10;;;28.70;86.80;;;;;;4994866;28;20470;-77
2022/06/17 11:28:12;;;;;;;2.60;2.40;;;28.70;86.10;;;;;;4994799;28;20495;-76
2022/06/17 11:30:52;;;;;;;2.60;2.40;;;28.80;86.20;;;;;;4994620;28;20474;-76
2022/06/17 11:33:24;;;;;;;2.90;2.70;;;28.90;86.40;;;;;;4994602;28;20512;-76
2022/06/17 11:36:00;;;;;;;2.83;2.63;;;28.90;86.20;;;;;;4995051;28;20815;-77
2022/06/17 11:38:30;;;;;;;2.70;2.50;;;29.00;85.70;;;;;;4995092;28;20853;-76
2022/06/17 11:40:57;;;;;;;3.30;2.90;;;28.90;85.90;;;;;;4994631;28;20459;-77
2022/06/17 11:43:29;;;;;;;4.53;2.70;;;29.10;87.20;;;;;;4994949;28;20460;-75
2022/06/17 11:45:56;;;;;;;2.80;2.47;;;29.30;83.70;;;;;;4994608;28;20475;-77
2022/06/17 11:48:23;;;;;;;2.70;2.50;;;29.40;85.20;;;;;;4994404;28;20458;-77
2022/06/17 11:51:07;;;;;;;2.30;2.10;;;29.50;87.40;;;;;;4994042;28;20465;-73
2022/06/17 11:53:45;;;;;;;4.33;2.70;;;29.50;84.30;;;;;;4993243;28;20512;-73
2022/06/17 11:56:12;;;;;;;4.37;2.10;;;29.60;87.90;;;;;;4994636;28;20484;-80
2022/06/17 11:58:55;;;;;;;3.40;3.10;;;29.60;83.80;;;;;;5000023;28;20485;-78
2022/06/17 12:01:22;;;;;;;2.60;2.40;;;29.70;85.60;;;;;;4996616;28;20576;-78
2022/06/17 12:03:48;;;;;;;2.70;2.50;;;29.80;85.70;;;;;;4994555;28;20975;-76
2022/06/17 12:06:27;;;;;;;3.07;2.20;;;29.90;81.30;;;;;;4994503;28;20459;-78
2022/06/17 12:09:04;;;;;;;3.50;2.47;;;29.80;84.50;;;;;;4995980;28;20463;-79
2022/06/17 12:11:39;;;;;;;2.40;2.20;;;29.80;85.40;;;;;;4994546;28;20843;-78
2022/06/17 12:14:16;;;;;;;2.90;2.47;;;30.00;82.20;;;;;;4994349;28;20485;-79
2022/06/17 12:16:45;;;;;;;2.63;2.40;;;29.90;80.70;;;;;;4994716;28;20490;-79
2022/06/17 12:19:20;;;;;;;2.80;2.60;;;30.00;82.10;;;;;;4993919;28;20558;-78
2022/06/17 12:21:56;;;;;;;3.03;2.10;;;30.00;75.50;;;;;;4994534;28;20945;-75
2022/06/17 12:24:33;;;;;;;4.23;2.40;;;30.10;78.00;;;;;;4993844;28;20459;-73
2022/06/17 12:27:10;;;;;;;4.87;2.50;;;30.20;81.10;;;;;;4994302;28;20485;-72
2022/06/17 12:29:44;;;;;;;2.63;2.43;;;30.20;78.90;;;;;;4993530;28;20469;-77
2022/06/17 12:32:16;;;;;;;4.07;2.73;;;30.30;82.00;;;;;;4993936;28;20462;-76
2022/06/17 12:34:52;;;;;;;2.30;2.10;;;30.40;80.20;;;;;;4993411;28;20484;-74
2022/06/17 12:37:31;;;;;;;3.23;2.47;;;30.30;78.20;;;;;;4993645;28;20488;-75
2022/06/17 12:40:03;;;;;;;3.23;2.50;;;30.10;76.30;;;;;;4992165;28;20488;-71
2022/06/17 12:42:35;;;;;;;5.30;2.47;;;30.10;83.70;;;;;;4993244;28;20998;-71
2022/06/17 12:45:19;;;;;;;2.80;2.13;;;30.30;80.00;;;;;;4993403;28;20949;-72
2022/06/17 12:47:58;;;;;;;2.80;2.40;;;30.40;79.20;;;;;;4993120;28;20481;-72
2022/06/17 12:53:25;;;;;;;4.50;2.70;;;30.50;80.30;;;;;;4993287;28;20484;-74
2022/06/17 12:56:03;;;;;;;2.40;2.20;;;30.60;82.70;;;;;;4993248;28;20469;-76
2022/06/17 12:58:50;;;;;;;3.30;2.40;;;30.90;76.20;;;;;;4993118;28;20466;-76
2022/06/17 13:01:21;;;;;;;2.53;2.20;;;31.00;82.70;;;;;;4992692;28;20993;-76
2022/06/17 13:04:08;;;;;;;2.83;2.30;;;31.20;74.20;;;;;;4992907;28;20466;-75
2022/06/17 13:06:42;;;;;;;2.60;2.40;;;31.10;75.10;;;;;;4992894;28;20500;-73
2022/06/17 13:09:17;;;;;;;4.50;2.67;;;30.90;79.10;;;;;;4992929;28;20842;-73
2022/06/17 13:11:52;;;;;;;5.23;2.47;;;30.70;79.20;;;;;;4992723;28;20488;-70
2022/06/17 13:14:28;;;;;;;2.40;1.87;;;30.50;73.10;;;;;;4993132;28;20879;-71
2022/06/17 13:17:01;;;;;;;2.83;2.27;;;30.10;75.10;;;;;;4992915;28;20491;-71
2022/06/17 13:19:51;;;;;;;3.33;2.30;;;29.80;82.60;;;;;;4992521;28;20468;-72
2022/06/17 13:22:26;;;;;;;2.23;2.00;;;30.00;79.30;;;;;;4993116;28;20464;-74
2022/06/17 13:25:16;;;;;;;3.20;2.57;;;30.20;79.10;;;;;;4989764;28;20471;-73
2022/06/17 13:27:59;;;;;;;3.90;2.30;;;30.50;83.70;;;;;;4991121;28;20552;-75